Time;durP1;ratioP1;P1;durP2;ratioP2;P2;SDS_P1;SDS_P2;PMS_P1;PMS_P2;Temp;Humidity;BMP_temperature;BMP_pressure;BME280_temperature;BME280_humidity;BME280_pressure;Samples;Min_cycle;Max_cycle;Signal;HPM_P1;HPM_P2
2023/06/18 00:14:31;;;;;;;9.27;5.50;;;19.00;99.90;;;;;;6237093;22;20059;-88
2023/06/18 00:16:58;;;;;;;8.75;4.88;;;18.90;99.90;;;;;;6196208;23;20008;-90
2023/06/18 00:19:24;;;;;;;9.05;4.90;;;18.90;99.90;;;;;;6196037;23;20019;-89
2023/06/18 00:21:51;;;;;;;7.93;4.78;;;18.90;99.90;;;;;;6196407;23;20008;-89
2023/06/18 00:24:17;;;;;;;14.95;5.72;;;18.90;99.90;;;;;;6196089;23;20004;-89
2023/06/18 00:26:43;;;;;;;8.90;5.20;;;18.90;99.90;;;;;;6196081;23;20012;-89
2023/06/18 00:29:10;;;;;;;11.77;5.57;;;18.90;99.90;;;;;;6196057;23;20004;-90
2023/06/18 00:31:36;;;;;;;12.00;5.65;;;18.90;99.90;;;;;;6195857;23;20350;-89
2023/06/18 00:34:07;;;;;;;16.25;6.68;;;18.90;99.90;;;;;;6195708;23;20019;-89
2023/06/18 00:36:34;;;;;;;8.80;5.07;;;18.80;99.90;;;;;;6195902;23;20059;-90
2023/06/18 00:39:02;;;;;;;15.02;6.00;;;18.80;99.90;;;;;;6195954;23;20012;-89
2023/06/18 00:41:30;;;;;;;9.43;5.25;;;18.70;99.90;;;;;;6196058;23;20533;-88
2023/06/18 00:43:58;;;;;;;9.68;5.95;;;18.60;99.90;;;;;;6195650;23;20024;-91
2023/06/18 00:46:26;;;;;;;10.18;5.28;;;18.60;99.90;;;;;;6196012;23;20000;-88
2023/06/18 00:48:55;;;;;;;8.35;4.97;;;18.60;99.90;;;;;;6195803;23;20011;-89
2023/06/18 00:51:26;;;;;;;15.35;6.32;;;18.60;99.90;;;;;;6195734;23;20058;-90
2023/06/18 00:53:54;;;;;;;8.25;4.80;;;18.60;99.90;;;;;;6195779;23;20028;-89
2023/06/18 00:56:22;;;;;;;9.85;5.30;;;18.60;99.90;;;;;;6195703;23;20001;-88
2023/06/18 00:58:48;;;;;;;8.85;5.45;;;18.60;99.90;;;;;;6195870;23;20019;-89
2023/06/18 01:01:15;;;;;;;9.25;5.28;;;18.60;99.90;;;;;;6195851;23;20011;-90
2023/06/18 01:03:42;;;;;;;8.50;4.68;;;18.60;99.90;;;;;;6195643;23;20430;-89
2023/06/18 01:06:18;;;;;;;9.00;4.60;;;18.70;99.90;;;;;;6195752;23;20083;-90
2023/06/18 01:08:48;;;;;;;6.78;4.28;;;18.70;99.90;;;;;;6195562;23;20051;-88
2023/06/18 01:11:24;;;;;;;13.70;4.95;;;18.70;99.90;;;;;;6195501;23;20319;-89
2023/06/18 01:13:52;;;;;;;8.73;4.25;;;18.70;99.90;;;;;;6195267;23;20389;-88
2023/06/18 01:16:24;;;;;;;7.88;3.60;;;18.70;99.90;;;;;;6195535;23;20087;-87
2023/06/18 01:18:52;;;;;;;14.50;5.55;;;18.70;99.90;;;;;;6195578;23;20012;-89
2023/06/18 01:21:23;;;;;;;14.10;4.70;;;18.80;99.90;;;;;;6195470;23;20094;-90
2023/06/18 01:23:58;;;;;;;7.95;4.45;;;18.80;99.90;;;;;;6195740;23;20008;-90
2023/06/18 01:26:26;;;;;;;7.97;4.47;;;18.80;99.90;;;;;;6195603;23;20083;-90
2023/06/18 01:28:58;;;;;;;9.02;4.88;;;18.90;99.90;;;;;;6195631;23;20012;-89
2023/06/18 01:31:26;;;;;;;7.10;4.90;;;18.80;99.90;;;;;;6195597;23;20434;-90
2023/06/18 01:33:53;;;;;;;8.52;4.68;;;18.80;99.90;;;;;;6195323;23;20020;-91
2023/06/18 01:36:50;;;;;;;9.13;4.82;;;18.80;99.90;;;;;;6195419;23;20031;-88
2023/06/18 01:39:23;;;;;;;6.15;4.15;;;18.70;99.90;;;;;;6211890;23;20012;-89
2023/06/18 01:41:57;;;;;;;11.63;4.68;;;18.70;99.90;;;;;;6195502;23;20011;-90
2023/06/18 01:44:26;;;;;;;7.22;4.45;;;18.60;99.90;;;;;;6195744;23;20008;-89
2023/06/18 01:46:54;;;;;;;8.73;5.30;;;18.60;99.90;;;;;;6195331;23;20463;-89
2023/06/18 01:49:23;;;;;;;12.55;4.03;;;18.50;99.90;;;;;;6195509;23;20054;-88
2023/06/18 01:51:52;;;;;;;10.20;4.75;;;18.50;99.90;;;;;;6195339;23;20000;-89
2023/06/18 01:54:20;;;;;;;6.53;4.22;;;18.50;99.90;;;;;;6195231;23;20016;-90
2023/06/18 01:56:49;;;;;;;7.60;4.88;;;18.50;99.90;;;;;;6195457;23;20000;-89
2023/06/18 01:59:15;;;;;;;7.38;4.45;;;18.40;99.90;;;;;;6195392;23;20017;-91
2023/06/18 02:01:42;;;;;;;8.50;4.68;;;18.40;99.90;;;;;;6195556;23;20084;-90
2023/06/18 02:04:08;;;;;;;9.55;5.40;;;18.30;99.90;;;;;;6195512;23;20031;-91
2023/06/18 02:06:35;;;;;;;10.68;4.53;;;18.20;99.90;;;;;;6195284;23;20087;-89
2023/06/18 02:09:01;;;;;;;13.23;5.82;;;18.20;99.90;;;;;;6195480;23;20441;-90
2023/06/18 02:11:30;;;;;;;11.98;5.00;;;18.10;99.90;;;;;;6195544;23;20004;-89
2023/06/18 02:13:56;;;;;;;5.63;4.82;;;18.00;99.90;;;;;;6175193;23;20016;-91
2023/06/18 02:16:24;;;;;;;8.27;5.07;;;18.00;99.90;;;;;;6159700;23;20012;-89
2023/06/18 02:18:51;;;;;;;6.70;4.47;;;17.90;99.90;;;;;;6135568;23;20032;-88
2023/06/18 02:21:17;;;;;;;11.77;5.38;;;17.90;99.90;;;;;;6135446;23;20411;-90
2023/06/18 02:23:43;;;;;;;7.45;4.95;;;17.90;99.90;;;;;;6135247;23;20037;-90
2023/06/18 02:26:09;;;;;;;7.43;4.90;;;17.90;99.90;;;;;;6135199;23;20501;-88
2023/06/18 02:28:37;;;;;;;11.27;5.22;;;17.90;99.90;;;;;;6134873;23;20009;-91
2023/06/18 02:31:05;;;;;;;8.50;5.18;;;17.90;99.90;;;;;;6134884;23;20056;-91
2023/06/18 02:33:32;;;;;;;7.10;4.85;;;17.90;99.90;;;;;;6160536;23;20019;-90
2023/06/18 02:36:00;;;;;;;9.13;5.50;;;17.90;99.90;;;;;;6137257;23;20338;-89
2023/06/18 02:38:27;;;;;;;10.07;5.32;;;17.90;99.90;;;;;;6161316;23;20534;-89
2023/06/18 02:40:55;;;;;;;8.48;4.72;;;17.90;99.90;;;;;;6136949;23;20032;-90
2023/06/18 02:43:22;;;;;;;5.13;4.53;;;17.90;99.90;;;;;;6136860;23;20012;-89
2023/06/18 02:45:50;;;;;;;10.85;5.22;;;17.90;99.90;;;;;;6136722;23;20001;-89
2023/06/18 02:48:16;;;;;;;13.43;5.30;;;17.90;99.90;;;;;;6188501;23;20040;-89
2023/06/18 02:50:43;;;;;;;7.00;4.80;;;17.90;99.90;;;;;;6167049;23;20079;-90
2023/06/18 02:53:09;;;;;;;7.93;4.35;;;17.90;99.90;;;;;;6167001;23;20043;-90
2023/06/18 02:55:37;;;;;;;11.27;4.50;;;18.00;99.90;;;;;;6167282;23;20386;-88
2023/06/18 02:58:03;;;;;;;9.57;4.38;;;17.90;99.90;;;;;;6167097;23;20013;-90
2023/06/18 03:00:31;;;;;;;6.88;4.63;;;18.00;99.90;;;;;;6167160;23;20008;-90
2023/06/18 03:02:57;;;;;;;11.52;4.68;;;18.00;99.90;;;;;;6166998;23;20439;-90
2023/06/18 03:05:29;;;;;;;6.68;5.03;;;18.00;99.90;;;;;;6167828;23;20012;-89
2023/06/18 03:07:56;;;;;;;7.38;4.35;;;18.00;99.90;;;;;;6166758;23;20009;-89
2023/06/18 03:10:23;;;;;;;8.63;5.00;;;17.90;99.90;;;;;;6167011;23;20009;-91
2023/06/18 03:12:53;;;;;;;7.45;5.35;;;17.90;99.90;;;;;;6167160;23;20020;-88
2023/06/18 03:15:29;;;;;;;10.77;5.20;;;17.90;99.90;;;;;;6191774;23;20013;-89
2023/06/18 03:17:56;;;;;;;12.23;5.65;;;17.90;99.90;;;;;;6167421;23;20005;-89
2023/06/18 03:20:23;;;;;;;7.82;4.40;;;17.90;99.90;;;;;;6167081;23;20501;-89
2023/06/18 03:22:55;;;;;;;8.52;4.15;;;17.90;99.90;;;;;;6167746;23;20013;-89
2023/06/18 03:25:22;;;;;;;5.82;4.90;;;17.90;99.90;;;;;;6166705;23;20023;-90
2023/06/18 03:27:50;;;;;;;5.25;4.18;;;18.00;99.90;;;;;;6166716;23;20008;-90
2023/06/18 03:30:19;;;;;;;6.30;4.72;;;18.00;99.90;;;;;;6168206;23;20423;-89
2023/06/18 03:32:46;;;;;;;11.63;4.53;;;18.00;99.90;;;;;;6166809;23;20029;-88
2023/06/18 03:35:13;;;;;;;8.50;4.97;;;18.10;99.90;;;;;;6166563;23;20025;-90
2023/06/18 03:37:40;;;;;;;8.45;4.10;;;18.10;99.90;;;;;;6166942;23;20000;-89
2023/06/18 03:40:07;;;;;;;9.75;4.80;;;18.10;99.90;;;;;;6166636;23;20066;-91
2023/06/18 03:42:34;;;;;;;13.23;5.43;;;18.10;99.90;;;;;;6166779;23;20071;-90
2023/06/18 03:45:00;;;;;;;11.70;4.88;;;18.10;99.90;;;;;;6166247;23;20338;-90
2023/06/18 03:47:27;;;;;;;11.05;5.50;;;18.10;99.90;;;;;;6166420;23;20364;-92
2023/06/18 03:49:53;;;;;;;7.65;5.47;;;18.10;99.90;;;;;;6166540;23;20008;-90
2023/06/18 03:52:20;;;;;;;9.02;5.05;;;18.10;99.90;;;;;;6166383;23;20043;-93
2023/06/18 03:54:52;;;;;;;8.20;5.70;;;18.10;99.90;;;;;;6166967;23;20038;-90
2023/06/18 03:57:19;;;;;;;8.27;5.30;;;18.10;99.90;;;;;;6167259;23;20009;-92
2023/06/18 03:59:51;;;;;;;8.82;5.20;;;18.20;99.90;;;;;;6166421;23;20422;-93
2023/06/18 04:02:19;;;;;;;8.80;5.40;;;18.30;99.90;;;;;;6191170;23;20315;-92
2023/06/18 04:04:48;;;;;;;9.65;6.03;;;18.40;99.90;;;;;;6166112;23;20009;-92
2023/06/18 04:07:15;;;;;;;8.38;6.40;;;18.40;99.90;;;;;;6166302;23;20039;-90
2023/06/18 04:09:42;;;;;;;13.77;6.90;;;18.50;99.90;;;;;;6166497;23;20452;-90
2023/06/18 04:12:11;;;;;;;6.75;5.70;;;18.60;99.90;;;;;;6166510;23;20001;-91
2023/06/18 04:14:37;;;;;;;6.95;6.25;;;18.70;99.90;;;;;;6166005;23;20028;-90
2023/06/18 04:17:04;;;;;;;9.30;7.03;;;18.70;99.90;;;;;;6166518;23;20049;-90
2023/06/18 04:19:34;;;;;;;8.02;6.45;;;18.80;99.90;;;;;;6166672;23;20380;-89
2023/06/18 04:22:00;;;;;;;7.45;6.30;;;18.90;99.90;;;;;;6166223;23;20028;-91
2023/06/18 04:24:27;;;;;;;7.72;6.93;;;19.00;99.90;;;;;;6166093;23;20063;-90
2023/06/18 04:26:54;;;;;;;10.02;6.35;;;19.20;99.90;;;;;;6166168;23;20033;-91
2023/06/18 04:29:23;;;;;;;8.23;6.90;;;19.30;99.90;;;;;;6166496;23;20036;-90
2023/06/18 04:31:50;;;;;;;8.40;7.18;;;19.40;99.90;;;;;;6166256;23;20009;-92
2023/06/18 04:34:16;;;;;;;8.55;7.55;;;19.50;99.90;;;;;;6166116;23;20008;-92
2023/06/18 04:36:44;;;;;;;9.35;8.48;;;19.90;99.90;;;;;;6166538;23;20035;-90
2023/06/18 04:39:11;;;;;;;11.73;10.48;;;20.50;99.90;;;;;;6166160;23;20004;-91
2023/06/18 04:41:37;;;;;;;12.13;11.18;;;21.70;99.90;;;;;;6165862;23;20008;-92
2023/06/18 04:44:04;;;;;;;12.93;11.73;;;22.80;99.90;;;;;;6166023;23;20399;-90
2023/06/18 04:46:33;;;;;;;13.30;12.30;;;23.30;99.90;;;;;;6165887;23;20005;-91
2023/06/18 04:49:01;;;;;;;14.18;12.75;;;24.40;99.90;;;;;;6166305;23;20009;-91
2023/06/18 04:51:29;;;;;;;14.80;13.52;;;25.30;99.90;;;;;;6166143;23;20091;-91
2023/06/18 04:53:56;;;;;;;16.45;15.05;;;26.10;99.90;;;;;;6165745;23;20107;-93
2023/06/18 04:56:23;;;;;;;19.25;17.95;;;26.90;99.90;;;;;;6165970;23;20319;-91
2023/06/18 04:58:50;;;;;;;21.13;19.50;;;27.50;99.90;;;;;;6165989;23;20438;-92
2023/06/18 05:01:17;;;;;;;20.92;19.27;;;28.60;99.90;;;;;;6165822;23;20032;-92
2023/06/18 05:03:52;;;;;;;20.92;19.27;;;28.90;99.90;;;;;;6166107;23;20007;-93
2023/06/18 05:06:20;;;;;;;21.15;19.55;;;28.60;99.90;;;;;;6166051;23;20009;-92
2023/06/18 05:08:50;;;;;;;21.08;19.38;;;28.40;99.90;;;;;;6165815;23;20008;-93
2023/06/18 05:11:20;;;;;;;21.65;20.10;;;28.60;99.90;;;;;;6165792;23;20009;-91
2023/06/18 05:13:48;;;;;;;22.25;20.55;;;28.60;99.90;;;;;;6165813;23;20112;-92
2023/06/18 05:16:17;;;;;;;20.75;19.35;;;28.90;99.90;;;;;;6166082;23;20004;-91
2023/06/18 05:18:43;;;;;;;21.10;19.70;;;29.40;99.90;;;;;;6165780;23;20020;-93
2023/06/18 05:21:13;;;;;;;21.60;20.00;;;29.30;99.90;;;;;;6166416;23;20344;-93
2023/06/18 05:23:40;;;;;;;22.38;20.35;;;29.60;99.90;;;;;;6166062;23;20068;-93
2023/06/18 05:26:07;;;;;;;21.58;19.95;;;30.10;99.90;;;;;;6165923;23;20008;-94
2023/06/18 05:28:36;;;;;;;21.80;20.30;;;29.60;99.90;;;;;;6136511;23;20439;-91
2023/06/18 05:31:02;;;;;;;22.27;20.77;;;29.60;99.90;;;;;;6135979;23;20067;-92
2023/06/18 05:33:30;;;;;;;22.25;20.65;;;29.70;99.90;;;;;;6136281;23;20016;-91
2023/06/18 05:35:59;;;;;;;22.30;20.50;;;30.10;99.90;;;;;;6136731;23;20016;-92
2023/06/18 05:38:26;;;;;;;21.20;19.70;;;29.90;99.90;;;;;;6136079;23;20005;-92
2023/06/18 05:40:53;;;;;;;21.33;19.40;;;29.60;99.90;;;;;;6136362;23;20013;-93
2023/06/18 05:43:19;;;;;;;21.48;19.65;;;29.30;99.90;;;;;;6132385;23;20067;-89
2023/06/18 05:45:50;;;;;;;21.00;19.42;;;29.30;99.90;;;;;;6136930;23;20376;-91
2023/06/18 05:48:17;;;;;;;21.42;19.98;;;29.50;99.90;;;;;;6136491;23;20016;-93
2023/06/18 05:50:59;;;;;;;22.52;20.80;;;29.40;99.90;;;;;;6140396;23;20020;-91
2023/06/18 05:53:27;;;;;;;22.70;20.92;;;30.20;99.90;;;;;;6136077;23;20063;-91
2023/06/18 05:55:53;;;;;;;21.58;20.13;;;30.50;99.90;;;;;;6136191;23;20009;-91
2023/06/18 05:58:22;;;;;;;22.63;20.85;;;30.20;99.90;;;;;;6136365;23;20458;-91
2023/06/18 06:00:48;;;;;;;21.40;19.85;;;29.80;99.90;;;;;;6136158;23;20029;-93
2023/06/18 06:03:15;;;;;;;22.02;20.38;;;29.60;99.90;;;;;;6136024;23;20009;-93
2023/06/18 06:05:42;;;;;;;20.65;19.10;;;29.10;99.90;;;;;;6134049;23;20464;-91
2023/06/18 06:08:11;;;;;;;20.60;19.27;;;28.70;99.90;;;;;;6137933;23;20059;-91
2023/06/18 06:10:38;;;;;;;20.73;19.08;;;28.80;99.90;;;;;;6138166;23;20013;-91
2023/06/18 06:13:06;;;;;;;20.45;18.98;;;28.90;99.90;;;;;;6146493;23;20456;-91
2023/06/18 06:15:33;;;;;;;21.10;19.45;;;28.70;99.90;;;;;;6167667;23;20472;-92
2023/06/18 06:18:01;;;;;;;20.77;19.40;;;29.20;99.90;;;;;;6167481;23;20064;-90
2023/06/18 06:20:28;;;;;;;21.60;20.00;;;28.80;99.90;;;;;;6167472;23;20008;-91
2023/06/18 06:22:55;;;;;;;21.35;19.45;;;28.60;99.90;;;;;;6167391;23;20004;-92
2023/06/18 06:25:22;;;;;;;21.23;19.63;;;28.20;99.90;;;;;;6167448;23;20008;-93
2023/06/18 06:27:48;;;;;;;21.05;19.52;;;28.20;99.90;;;;;;6168181;23;20000;-92
2023/06/18 06:30:15;;;;;;;21.65;19.95;;;28.30;99.90;;;;;;6168494;23;20015;-90
2023/06/18 06:32:41;;;;;;;20.88;19.38;;;28.30;99.90;;;;;;6168558;23;20457;-91
2023/06/18 06:35:08;;;;;;;20.65;19.13;;;28.00;99.90;;;;;;6168093;23;20095;-90
2023/06/18 06:37:35;;;;;;;21.00;19.35;;;27.80;99.90;;;;;;6167282;23;20099;-93
2023/06/18 06:40:05;;;;;;;20.98;19.20;;;27.90;99.90;;;;;;6168464;23;20012;-91
2023/06/18 06:42:35;;;;;;;20.73;19.25;;;27.60;99.90;;;;;;6167917;23;20040;-90
2023/06/18 06:45:31;;;;;;;21.90;20.40;;;28.20;99.90;;;;;;6069409;23;20015;-91
2023/06/18 08:59:38;;;;;;;23.58;22.17;;;28.40;99.90;;;;;;6123911;23;20036;-87
2023/06/18 09:02:05;;;;;;;23.30;21.90;;;28.30;99.90;;;;;;6165834;23;20012;-92
2023/06/18 09:04:35;;;;;;;23.13;21.83;;;28.30;99.90;;;;;;6165837;23;20047;-88
2023/06/18 09:07:03;;;;;;;23.15;21.75;;;28.80;99.90;;;;;;6165802;23;20016;-88
2023/06/18 09:09:30;;;;;;;24.08;22.42;;;29.10;99.90;;;;;;6165766;23;20009;-93
2023/06/18 09:11:57;;;;;;;24.48;22.75;;;28.50;99.90;;;;;;6136432;23;20044;-91
2023/06/18 09:14:24;;;;;;;23.35;21.95;;;28.80;99.90;;;;;;6136035;23;20454;-89
2023/06/18 09:16:54;;;;;;;22.27;20.98;;;28.30;99.90;;;;;;6136176;23;20024;-88
2023/06/18 09:19:21;;;;;;;22.77;21.48;;;28.10;99.90;;;;;;6136246;23;20148;-88
2023/06/18 09:21:48;;;;;;;23.23;21.83;;;28.50;99.90;;;;;;6136279;23;20011;-89
2023/06/18 09:24:22;;;;;;;24.48;22.88;;;28.70;99.90;;;;;;6136417;23;20431;-90
2023/06/18 09:27:01;;;;;;;24.52;22.95;;;28.40;99.90;;;;;;6136592;23;20017;-88
2023/06/18 09:29:29;;;;;;;23.58;22.00;;;28.60;99.90;;;;;;6136562;23;20009;-89
2023/06/18 09:31:56;;;;;;;25.42;23.25;;;28.50;99.90;;;;;;6136413;23;20039;-88
2023/06/18 09:34:22;;;;;;;24.13;22.55;;;28.70;99.90;;;;;;6136026;23;20021;-90
2023/06/18 09:36:50;;;;;;;23.40;21.75;;;28.40;99.90;;;;;;6136161;23;20032;-90
2023/06/18 09:39:22;;;;;;;23.38;21.83;;;28.20;99.90;;;;;;6136379;23;20040;-89
2023/06/18 09:41:54;;;;;;;23.55;21.90;;;28.20;99.90;;;;;;6136663;23;20016;-90
2023/06/18 09:44:23;;;;;;;25.08;23.38;;;28.20;99.90;;;;;;6138137;23;20060;-89
2023/06/18 09:46:56;;;;;;;24.08;22.60;;;28.20;99.90;;;;;;6137993;23;20445;-90
2023/06/18 09:49:25;;;;;;;25.35;23.85;;;28.10;99.90;;;;;;6138212;23;20506;-88
2023/06/18 09:51:53;;;;;;;24.77;23.08;;;28.20;99.90;;;;;;6138069;23;20009;-91
2023/06/18 09:54:21;;;;;;;23.25;21.95;;;27.80;99.90;;;;;;6138051;23;20029;-90
2023/06/18 09:56:59;;;;;;;23.50;21.95;;;27.50;99.90;;;;;;6137921;23;20012;-89
2023/06/18 09:59:27;;;;;;;23.05;21.75;;;27.70;99.90;;;;;;6144930;23;20439;-90
2023/06/18 10:01:57;;;;;;;23.27;21.88;;;27.70;99.90;;;;;;6162386;23;20036;-89
2023/06/18 10:04:25;;;;;;;23.75;22.30;;;27.50;99.90;;;;;;6163695;23;20072;-90
2023/06/18 10:06:58;;;;;;;24.58;23.02;;;27.70;99.90;;;;;;6162487;23;20067;-91
2023/06/18 10:09:53;;;;;;;24.53;23.03;;;27.80;99.90;;;;;;6163514;23;20092;-91
2023/06/18 10:12:23;;;;;;;25.85;23.33;;;27.50;99.90;;;;;;6162490;23;20040;-93
2023/06/18 10:14:56;;;;;;;23.42;21.92;;;27.30;99.90;;;;;;6162498;23;20021;-93
2023/06/18 10:17:34;;;;;;;23.27;21.25;;;27.30;99.90;;;;;;6162464;23;20032;-93
2023/06/18 10:20:07;;;;;;;22.30;21.00;;;27.60;99.90;;;;;;6162420;23;20091;-93
2023/06/18 10:22:37;;;;;;;22.52;21.23;;;27.40;99.90;;;;;;6162654;23;20005;-94
2023/06/18 10:25:37;;;;;;;22.73;21.42;;;27.20;99.90;;;;;;6162415;23;20052;-91
2023/06/18 10:28:04;;;;;;;24.90;23.30;;;27.20;99.90;;;;;;6164450;23;20430;-87
2023/06/18 10:30:31;;;;;;;23.85;22.38;;;27.40;99.90;;;;;;6162096;23;20023;-84
2023/06/18 10:32:58;;;;;;;22.48;21.17;;;27.40;99.90;;;;;;6161901;23;20005;-86
2023/06/18 10:35:25;;;;;;;23.63;21.98;;;27.50;99.90;;;;;;6161844;23;20009;-86
2023/06/18 10:37:52;;;;;;;23.55;22.15;;;27.60;99.90;;;;;;6161870;23;20087;-88
2023/06/18 10:40:20;;;;;;;24.35;22.73;;;27.60;99.90;;;;;;6161984;23;20009;-86
2023/06/18 10:42:49;;;;;;;23.80;22.30;;;27.50;99.90;;;;;;6162208;23;20001;-85
2023/06/18 10:45:17;;;;;;;23.67;22.27;;;27.40;99.90;;;;;;6161913;23;20059;-87
2023/06/18 10:47:44;;;;;;;23.40;21.95;;;27.20;99.90;;;;;;6161879;23;20016;-87
2023/06/18 10:50:14;;;;;;;24.60;23.00;;;27.10;99.90;;;;;;6161827;23;20071;-87
2023/06/18 10:52:49;;;;;;;23.35;21.85;;;27.10;99.90;;;;;;6161557;23;20016;-86
2023/06/18 10:55:18;;;;;;;24.00;22.40;;;27.30;99.90;;;;;;6161102;23;20017;-83
2023/06/18 10:58:03;;;;;;;24.02;22.38;;;27.30;99.90;;;;;;6161661;23;20059;-85
2023/06/18 11:00:36;;;;;;;23.55;22.00;;;27.10;99.90;;;;;;6161917;23;20109;-85
2023/06/18 11:03:13;;;;;;;23.02;21.58;;;27.20;99.90;;;;;;6161928;23;20028;-87
2023/06/18 11:05:41;;;;;;;23.50;22.00;;;27.30;99.90;;;;;;6161831;23;20009;-86
2023/06/18 11:08:11;;;;;;;23.77;22.25;;;27.30;99.90;;;;;;6161876;23;20434;-84
2023/06/18 11:10:39;;;;;;;24.55;22.85;;;27.60;99.90;;;;;;6186583;23;20005;-84
2023/06/18 11:13:09;;;;;;;24.42;22.77;;;27.60;99.90;;;;;;6186309;23;20053;-86
2023/06/18 11:15:37;;;;;;;24.30;22.85;;;27.40;99.90;;;;;;6161639;23;20025;-88
2023/06/18 11:18:03;;;;;;;25.10;23.27;;;27.50;99.90;;;;;;6161711;23;20496;-85
2023/06/18 11:20:32;;;;;;;24.63;23.02;;;27.60;99.90;;;;;;6161708;23;20009;-86
2023/06/18 11:23:00;;;;;;;24.35;22.83;;;27.80;99.90;;;;;;6161553;23;20012;-85
2023/06/18 11:25:28;;;;;;;24.45;22.85;;;27.90;99.90;;;;;;6161550;23;20029;-85
2023/06/18 11:28:02;;;;;;;24.35;22.85;;;27.90;99.90;;;;;;6161504;23;20473;-86
2023/06/18 11:30:37;;;;;;;24.55;22.98;;;27.70;99.90;;;;;;6161665;23;20009;-86
2023/06/18 11:33:04;;;;;;;24.83;23.33;;;27.60;99.90;;;;;;6161406;23;20083;-85
2023/06/18 11:35:33;;;;;;;24.60;23.10;;;27.40;99.90;;;;;;6160686;23;20013;-85
2023/06/18 11:38:00;;;;;;;25.00;23.35;;;27.50;99.90;;;;;;6161650;23;20009;-86
2023/06/18 11:40:26;;;;;;;23.67;22.27;;;27.40;99.90;;;;;;6161558;23;20012;-87
2023/06/18 11:42:54;;;;;;;23.92;22.52;;;27.60;99.90;;;;;;6161102;23;20005;-84
2023/06/18 11:45:20;;;;;;;24.85;23.35;;;27.80;99.90;;;;;;6185663;23;20028;-86
2023/06/18 11:47:51;;;;;;;25.02;23.52;;;28.10;99.90;;;;;;6161231;23;20039;-86
2023/06/18 11:50:22;;;;;;;25.30;23.80;;;27.90;99.90;;;;;;6161125;23;20443;-84
2023/06/18 11:52:48;;;;;;;24.80;23.00;;;27.60;99.90;;;;;;6185456;23;20012;-85
2023/06/18 11:55:15;;;;;;;24.58;23.00;;;27.50;99.90;;;;;;6161256;23;20095;-85
2023/06/18 11:57:42;;;;;;;24.65;22.90;;;27.50;99.90;;;;;;6185942;23;20009;-86
2023/06/18 12:00:11;;;;;;;25.08;23.15;;;27.80;99.90;;;;;;6161214;23;20024;-86
2023/06/18 12:02:41;;;;;;;24.33;22.77;;;27.60;99.90;;;;;;6161866;23;20084;-87
2023/06/18 12:05:09;;;;;;;25.42;23.83;;;27.60;99.90;;;;;;6161159;23;20435;-85
2023/06/18 12:07:44;;;;;;;24.70;23.20;;;27.50;99.90;;;;;;6161084;23;20091;-86
2023/06/18 12:10:14;;;;;;;25.25;23.60;;;27.50;99.90;;;;;;6161071;23;20009;-85
2023/06/18 12:12:53;;;;;;;24.52;23.10;;;27.40;99.90;;;;;;6160994;23;20016;-86
2023/06/18 12:15:32;;;;;;;24.77;23.17;;;27.30;99.90;;;;;;6160933;23;20025;-86
2023/06/18 12:18:15;;;;;;;24.73;23.13;;;27.40;99.90;;;;;;6161305;23;20012;-85
2023/06/18 12:20:42;;;;;;;25.40;23.48;;;27.50;99.90;;;;;;6161306;23;20084;-88
2023/06/18 12:23:09;;;;;;;24.05;22.65;;;27.40;99.90;;;;;;6161035;23;20005;-87
2023/06/18 12:25:35;;;;;;;24.40;22.92;;;27.30;99.90;;;;;;6161165;23;20013;-86
2023/06/18 12:28:02;;;;;;;24.65;22.92;;;27.10;99.90;;;;;;6161288;23;20008;-86
2023/06/18 12:30:32;;;;;;;24.73;23.23;;;27.10;99.90;;;;;;6161039;23;20009;-86
2023/06/18 12:33:11;;;;;;;24.75;23.15;;;27.30;99.90;;;;;;6160946;23;20008;-86
2023/06/18 12:35:46;;;;;;;24.52;23.02;;;27.00;99.90;;;;;;6161051;23;20017;-86
2023/06/18 12:38:13;;;;;;;24.33;22.92;;;26.90;99.90;;;;;;6161176;23;20084;-86
2023/06/18 12:41:06;;;;;;;24.85;23.25;;;26.80;99.90;;;;;;6160991;23;20096;-85
2023/06/18 12:43:39;;;;;;;24.90;23.42;;;27.00;99.90;;;;;;6156138;23;20013;-88
2023/06/18 12:46:06;;;;;;;24.83;23.33;;;27.00;99.90;;;;;;6160991;23;20032;-87
2023/06/18 12:48:40;;;;;;;25.17;23.52;;;27.00;99.90;;;;;;6161024;23;20039;-87
2023/06/18 12:51:08;;;;;;;24.48;23.00;;;27.00;99.90;;;;;;6161054;23;20009;-89
2023/06/18 12:53:34;;;;;;;24.75;23.25;;;26.50;99.90;;;;;;6160520;23;20028;-89
2023/06/18 12:56:20;;;;;;;24.58;23.00;;;26.60;99.90;;;;;;6160860;23;20466;-89
2023/06/18 12:58:47;;;;;;;24.48;22.98;;;26.50;99.90;;;;;;6161023;23;20505;-90
2023/06/18 13:01:15;;;;;;;24.52;22.98;;;26.50;99.90;;;;;;6136399;23;20446;-90
2023/06/18 13:03:42;;;;;;;24.13;22.58;;;26.60;99.90;;;;;;6136249;23;20194;-90
2023/06/18 13:06:11;;;;;;;24.48;22.88;;;26.80;99.90;;;;;;6136827;23;20024;-89
2023/06/18 13:08:38;;;;;;;24.33;22.60;;;26.90;99.90;;;;;;6136166;23;20032;-89
2023/06/18 13:11:05;;;;;;;24.30;22.80;;;26.90;99.90;;;;;;6160940;23;20074;-91
2023/06/18 13:13:32;;;;;;;24.88;23.38;;;26.90;99.90;;;;;;6136021;23;20025;-89
2023/06/18 13:15:59;;;;;;;24.75;23.15;;;27.00;99.90;;;;;;6136115;23;20005;-90
2023/06/18 13:18:25;;;;;;;24.48;22.98;;;26.80;99.90;;;;;;6136232;23;20032;-90
2023/06/18 13:20:54;;;;;;;24.30;22.85;;;27.00;99.90;;;;;;6136174;23;20013;-89
2023/06/18 13:23:21;;;;;;;24.83;23.30;;;26.90;99.90;;;;;;6136033;23;20005;-90
2023/06/18 13:25:48;;;;;;;25.05;22.98;;;26.80;99.90;;;;;;6136166;23;20020;-89
2023/06/18 13:28:17;;;;;;;24.13;22.70;;;26.70;99.90;;;;;;6136289;23;20092;-90
2023/06/18 13:30:44;;;;;;;24.80;23.20;;;26.70;99.90;;;;;;6136292;23;20494;-90
2023/06/18 13:33:10;;;;;;;24.50;23.10;;;26.80;99.90;;;;;;6136178;23;20079;-92
2023/06/18 13:35:37;;;;;;;24.60;23.00;;;27.00;99.90;;;;;;6136139;23;20508;-89
2023/06/18 13:38:04;;;;;;;24.88;23.27;;;27.00;99.90;;;;;;6136428;23;20005;-90
2023/06/18 13:40:30;;;;;;;23.77;22.38;;;26.90;99.90;;;;;;6136017;23;20012;-89
2023/06/18 13:42:58;;;;;;;23.83;22.42;;;26.90;99.90;;;;;;6135985;23;20112;-93
2023/06/18 13:45:24;;;;;;;24.60;22.83;;;27.00;99.90;;;;;;6135997;23;20096;-90
2023/06/18 13:47:50;;;;;;;23.70;22.17;;;26.90;99.90;;;;;;6136036;23;20008;-89
2023/06/18 13:50:17;;;;;;;23.83;22.15;;;26.90;99.90;;;;;;6136003;23;20016;-89
2023/06/18 13:52:44;;;;;;;23.67;22.27;;;27.00;99.90;;;;;;6135999;23;20443;-90
2023/06/18 13:55:10;;;;;;;23.65;21.98;;;27.00;99.90;;;;;;6136026;23;20017;-91
2023/06/18 13:57:37;;;;;;;23.30;21.88;;;26.80;99.90;;;;;;6136162;23;20029;-89
2023/06/18 14:00:05;;;;;;;23.40;21.90;;;26.70;99.90;;;;;;6150800;23;20044;-90
2023/06/18 14:02:31;;;;;;;23.65;22.20;;;26.80;99.90;;;;;;6185698;23;20359;-90
2023/06/18 14:04:57;;;;;;;23.30;21.90;;;26.90;99.90;;;;;;6160494;23;20009;-90
2023/06/18 14:07:24;;;;;;;24.00;22.40;;;26.80;99.90;;;;;;6160626;23;20316;-90
2023/06/18 14:09:51;;;;;;;23.75;22.10;;;26.50;99.90;;;;;;6160377;23;20001;-91
2023/06/18 14:12:17;;;;;;;23.98;22.38;;;26.60;99.90;;;;;;6160327;23;20008;-90
2023/06/18 14:14:47;;;;;;;23.13;21.63;;;26.70;99.90;;;;;;6160472;23;20027;-89
2023/06/18 14:17:14;;;;;;;23.73;22.13;;;26.90;99.90;;;;;;6160616;23;20012;-89
2023/06/18 14:19:41;;;;;;;23.00;21.60;;;26.80;99.90;;;;;;6160442;23;20009;-88
2023/06/18 14:22:08;;;;;;;23.00;21.50;;;26.70;99.90;;;;;;6160779;23;20084;-88
2023/06/18 14:24:35;;;;;;;23.20;21.80;;;26.50;99.90;;;;;;6160406;23;20024;-88
2023/06/18 14:27:02;;;;;;;23.33;21.90;;;26.30;99.90;;;;;;6160483;23;20046;-89
2023/06/18 14:29:32;;;;;;;23.58;22.08;;;26.30;99.90;;;;;;6162082;23;20401;-88
2023/06/18 14:32:00;;;;;;;23.90;22.40;;;26.30;99.90;;;;;;6162144;23;20036;-88
2023/06/18 14:34:26;;;;;;;23.80;22.20;;;26.20;99.90;;;;;;6162313;23;20005;-87
2023/06/18 14:36:55;;;;;;;23.10;21.60;;;26.10;99.90;;;;;;6162129;23;20047;-88
2023/06/18 14:39:22;;;;;;;23.35;21.65;;;26.10;99.90;;;;;;6162277;23;20087;-89
2023/06/18 14:41:52;;;;;;;23.75;22.00;;;26.10;99.90;;;;;;6162042;23;20037;-89
2023/06/18 14:44:19;;;;;;;23.60;22.20;;;26.20;99.90;;;;;;6162286;23;20140;-87
2023/06/18 14:46:46;;;;;;;23.15;21.70;;;26.20;99.90;;;;;;6162057;23;20009;-88
2023/06/18 14:49:12;;;;;;;22.98;21.58;;;26.10;99.90;;;;;;6162165;23;20124;-88
2023/06/18 14:51:38;;;;;;;23.73;22.13;;;26.20;99.90;;;;;;6162222;23;20013;-87
2023/06/18 14:54:17;;;;;;;23.48;22.08;;;26.30;99.90;;;;;;6162298;23;20126;-88
2023/06/18 14:56:46;;;;;;;24.13;22.63;;;26.50;99.90;;;;;;6162201;23;20044;-88
2023/06/18 14:59:12;;;;;;;23.55;22.05;;;26.40;99.90;;;;;;6161655;23;20024;-89
2023/06/18 15:01:39;;;;;;;24.63;22.92;;;26.40;99.90;;;;;;6162014;23;20013;-89
2023/06/18 15:04:07;;;;;;;23.75;22.17;;;26.20;99.90;;;;;;6161933;23;20005;-87
2023/06/18 15:06:34;;;;;;;23.75;22.25;;;26.20;99.90;;;;;;6162133;23;20013;-88